Flygplan har kanat av på Arlanda

(1/7) > >>

airbus380:
Iran Air A300 har kanat av på bana 19R...

http://www.expressen.se/Nyheter/1.1847098/flygplan-har-kanat-av-startbanan-pa-arlanda

/Serdar

nighty142:
Hoppas den står kvar där den står nu, tänkte dra ut och plåta.

Hagrido:
www.arlanda.se]

En Airbus från Iran Air hamnade utanför banan drygt hundra meter efter start vid lunchtid på lördagen.

Planet, som nu sitter fast i snön, är helt intakt. Ingen ombord uppges vara skadad. Resenärerna bussas tillbaka till terminal.

Bana 1 är tills vidare stängd, övriga banor är i drift. Lördag är en lågtrafikdag och risken för förseningar i övrig flygtrafik är låg.

Metarn på ESSA 161220Z 14005KT 8000 -SG SCT015 BKN022 M01/M03 Q1035 R01L/710152 R08/710156 R01R///99// NOSIG

Notam för ESSA

RWY 01L/19R CLOSED.
    16JAN10 1154 - 16JAN10 1900EST (ES/1/A0010/10)

Adam:
Hitta denna på Aftonbladet med en bättre bild fråga hur lyckas man ställa henne så ? skulle det vara fel på gas/bränsle till morton borde väll man sätt det?
http://www.aftonbladet.se/nyheter/article6437920.ab

airbus380:
Skönt att ingen kom till skada, utgången hade kunnat bli värre om det hade kommit upp i högre fart.

Något som jag reagerade över är att det fanns 22 besättningsmän...låter lite väl mycket det. Är det normalt med så många

/Serdar

Navigation

Up one level

Next page